createdAt,value
2022-10-17T00:02:05.090Z,6.73
2022-10-17T00:07:01.207Z,5.10
2022-10-17T00:09:29.657Z,5.53
2022-10-17T00:11:57.903Z,4.80
2022-10-17T00:14:28.616Z,5.03
2022-10-17T00:16:56.653Z,5.17
2022-10-17T00:19:26.448Z,5.90
2022-10-17T00:21:55.270Z,5.70
2022-10-17T00:24:23.692Z,5.93
2022-10-17T00:26:52.008Z,5.50
2022-10-17T00:29:21.019Z,5.43
2022-10-17T00:31:49.409Z,5.97
2022-10-17T00:34:17.436Z,5.40
2022-10-17T00:36:47.348Z,6.57
2022-10-17T00:39:15.610Z,5.70
2022-10-17T00:41:43.621Z,5.13
2022-10-17T00:44:47.676Z,6.13
2022-10-17T00:47:18.765Z,7.07
2022-10-17T00:49:49.191Z,6.77
2022-10-17T00:52:21.716Z,7.00
2022-10-17T00:54:51.165Z,5.67
2022-10-17T00:57:19.345Z,5.97
2022-10-17T00:59:51.487Z,5.40
2022-10-17T01:02:22.361Z,4.90
2022-10-17T01:04:53.450Z,5.97
2022-10-17T01:07:23.281Z,6.23
2022-10-17T01:09:52.191Z,6.60
2022-10-17T01:12:23.543Z,6.40
2022-10-17T01:15:03.958Z,5.97
2022-10-17T01:17:37.774Z,6.80
2022-10-17T01:20:26.089Z,5.70
2022-10-17T01:23:04.875Z,4.77
2022-10-17T01:25:37.968Z,5.97
2022-10-17T01:28:17.060Z,5.27
2022-10-17T01:31:04.477Z,5.33
2022-10-17T01:33:43.464Z,5.30
2022-10-17T01:36:14.356Z,5.80
2022-10-17T01:38:47.261Z,5.13
2022-10-17T01:41:20.663Z,4.90
2022-10-17T01:43:51.211Z,5.67
2022-10-17T01:46:24.696Z,5.97
2022-10-17T01:48:54.614Z,5.73
2022-10-17T01:51:25.415Z,6.07
2022-10-17T01:53:55.732Z,5.97
2022-10-17T01:56:26.839Z,5.60
2022-10-17T01:58:59.383Z,5.37
2022-10-17T02:01:29.865Z,5.37
2022-10-17T02:04:02.436Z,5.13
2022-10-17T02:06:30.884Z,5.50
2022-10-17T02:08:59.330Z,5.40
2022-10-17T02:11:28.404Z,5.40
2022-10-17T02:16:44.811Z,5.57
2022-10-17T02:19:32.226Z,5.30
2022-10-17T02:22:11.244Z,5.40
2022-10-17T02:24:46.827Z,6.37
2022-10-17T02:27:19.066Z,5.00
2022-10-17T02:29:49.700Z,5.70
2022-10-17T02:32:23.366Z,5.17
2022-10-17T02:34:52.494Z,5.97
2022-10-17T02:37:25.180Z,5.70
2022-10-17T02:39:53.728Z,6.00
2022-10-17T02:42:22.392Z,4.87
2022-10-17T02:44:50.801Z,6.00
2022-10-17T02:47:25.246Z,5.73
2022-10-17T02:49:55.696Z,5.70
2022-10-17T02:52:28.741Z,5.87
2022-10-17T02:55:01.931Z,5.30
2022-10-17T02:57:32.896Z,5.80
2022-10-17T03:00:03.303Z,5.40
2022-10-17T03:02:40.005Z,5.87
2022-10-17T03:05:09.311Z,5.70
2022-10-17T03:07:39.000Z,5.90
2022-10-17T03:10:08.498Z,5.40
2022-10-17T03:12:36.342Z,5.57
2022-10-17T03:15:04.709Z,6.53
2022-10-17T03:17:34.697Z,5.40
2022-10-17T03:20:03.314Z,5.43
2022-10-17T03:22:32.206Z,5.13
2022-10-17T03:25:02.468Z,5.57
2022-10-17T03:27:30.793Z,6.23
2022-10-17T03:29:59.124Z,6.30
2022-10-17T03:32:27.224Z,5.03
2022-10-17T03:34:57.321Z,5.80
2022-10-17T03:37:25.787Z,5.80
2022-10-17T03:39:53.996Z,6.10
2022-10-17T03:42:22.786Z,6.30
2022-10-17T03:44:51.095Z,5.37
2022-10-17T03:47:19.313Z,5.63
2022-10-17T03:49:48.211Z,6.33
2022-10-17T03:52:18.984Z,5.37
2022-10-17T03:54:47.515Z,5.40
2022-10-17T03:57:15.693Z,5.90
2022-10-17T03:59:43.856Z,6.30
2022-10-17T04:02:16.376Z,6.10
2022-10-17T04:04:45.136Z,5.70
2022-10-17T04:07:13.271Z,5.73
2022-10-17T04:09:46.406Z,6.10
2022-10-17T04:12:19.275Z,6.30
2022-10-17T04:14:47.454Z,6.03
2022-10-17T04:17:16.575Z,5.20
2022-10-17T04:19:46.973Z,5.60
2022-10-17T04:22:20.375Z,6.20
2022-10-17T04:24:50.003Z,5.70
2022-10-17T04:27:32.455Z,6.07
2022-10-17T04:30:00.746Z,5.80
2022-10-17T04:32:29.718Z,5.80
2022-10-17T04:35:03.387Z,6.13
2022-10-17T04:37:32.143Z,5.80
2022-10-17T04:40:06.613Z,6.30
2022-10-17T04:42:36.478Z,6.37
2022-10-17T04:45:05.062Z,5.93
2022-10-17T04:47:34.326Z,6.23
2022-10-17T04:50:02.805Z,6.20
2022-10-17T04:52:34.813Z,6.00
2022-10-17T04:55:06.895Z,7.10
2022-10-17T04:57:36.116Z,5.80
2022-10-17T05:00:17.416Z,6.57
2022-10-17T05:03:01.285Z,6.20
2022-10-17T05:05:30.800Z,7.20
2022-10-17T05:07:59.077Z,6.63
2022-10-17T05:10:37.034Z,6.53
2022-10-17T05:13:06.275Z,7.67
2022-10-17T05:15:35.435Z,6.93
2022-10-17T05:18:04.729Z,7.20
2022-10-17T05:20:33.098Z,7.70
2022-10-17T05:23:02.003Z,6.53
2022-10-17T05:25:36.494Z,6.73
2022-10-17T05:28:04.728Z,6.90
2022-10-17T05:30:35.314Z,7.33
2022-10-17T05:33:06.679Z,6.80
2022-10-17T05:35:35.402Z,7.00
2022-10-17T05:38:03.476Z,7.83
2022-10-17T05:40:33.793Z,8.07
2022-10-17T05:43:03.953Z,7.37
2022-10-17T05:45:33.863Z,7.10
2022-10-17T05:48:03.439Z,7.63
2022-10-17T05:50:32.212Z,7.23
2022-10-17T05:53:06.120Z,7.97
2022-10-17T05:55:40.655Z,6.90
2022-10-17T05:58:17.606Z,7.07
2022-10-17T06:00:53.216Z,7.47
2022-10-17T06:03:22.195Z,6.83
2022-10-17T06:05:50.547Z,7.10
2022-10-17T06:08:20.589Z,6.83
2022-10-17T06:10:50.520Z,7.87
2022-10-17T06:13:21.096Z,7.67
2022-10-17T06:15:54.246Z,9.43
2022-10-17T06:18:23.777Z,10.33
2022-10-17T06:20:52.319Z,8.10
2022-10-17T06:23:23.751Z,11.37
2022-10-17T06:26:01.140Z,8.80
2022-10-17T06:28:33.281Z,8.27
2022-10-17T06:31:06.002Z,7.53
2022-10-17T06:33:34.990Z,7.83
2022-10-17T06:36:08.492Z,7.23
2022-10-17T06:38:37.455Z,7.67
2022-10-17T06:41:14.141Z,6.93
2022-10-17T06:43:46.228Z,7.47
2022-10-17T06:46:46.559Z,8.10
2022-10-17T06:49:18.416Z,7.00
2022-10-17T06:51:59.295Z,8.23
2022-10-17T06:54:42.272Z,6.70
2022-10-17T06:57:32.920Z,7.27
2022-10-17T07:00:23.847Z,6.37
2022-10-17T07:02:55.547Z,4.63
2022-10-17T07:05:25.400Z,4.60
2022-10-17T07:07:53.564Z,4.37
2022-10-17T07:10:22.054Z,4.73
2022-10-17T07:12:51.564Z,3.80
2022-10-17T07:15:20.021Z,4.50
2022-10-17T07:17:51.964Z,4.27
2022-10-17T07:20:20.950Z,5.20
2022-10-17T07:22:49.206Z,3.80
2022-10-17T07:25:19.742Z,4.27
2022-10-17T07:27:54.969Z,4.90
2022-10-17T07:30:23.986Z,4.80
2022-10-17T07:32:58.479Z,4.63
2022-10-17T07:35:26.730Z,4.83
2022-10-17T07:37:55.002Z,4.10
2022-10-17T07:40:24.079Z,4.10
2022-10-17T07:42:53.660Z,3.53
2022-10-17T07:45:23.818Z,3.70
2022-10-17T07:47:52.827Z,3.47
2022-10-17T07:50:25.583Z,4.20
2022-10-17T07:52:53.686Z,3.53
2022-10-17T07:55:23.961Z,4.83
2022-10-17T07:57:52.434Z,3.83
2022-10-17T08:00:20.893Z,3.00
2022-10-17T08:02:49.158Z,3.13
2022-10-17T08:05:17.697Z,3.17
2022-10-17T08:07:50.446Z,3.40
2022-10-17T08:10:19.394Z,3.10
2022-10-17T08:12:48.886Z,3.60
2022-10-17T08:15:18.672Z,3.10
2022-10-17T08:17:47.450Z,2.80
2022-10-17T08:20:15.654Z,2.73
2022-10-17T08:22:44.658Z,3.10
2022-10-17T08:25:14.153Z,2.50
2022-10-17T08:27:42.982Z,2.47
2022-10-17T08:30:12.088Z,2.30
2022-10-17T08:32:40.638Z,2.57
2022-10-17T08:35:09.301Z,2.33
2022-10-17T08:37:37.776Z,2.53
2022-10-17T08:40:07.281Z,2.90
2022-10-17T08:43:03.775Z,2.40
2022-10-17T08:45:35.023Z,2.50
2022-10-17T08:48:07.590Z,2.80
2022-10-17T08:50:40.563Z,2.70
2022-10-17T08:53:15.017Z,2.53
2022-10-17T08:55:46.077Z,2.27
2022-10-17T08:58:20.906Z,2.03
2022-10-17T09:00:58.149Z,1.93
2022-10-17T09:03:40.334Z,1.70
2022-10-17T09:06:19.827Z,2.47
2022-10-17T09:08:58.854Z,2.80
2022-10-17T09:11:41.995Z,2.30
2022-10-17T09:14:36.042Z,2.13
2022-10-17T09:17:20.493Z,2.70
2022-10-17T09:20:02.135Z,2.07
2022-10-17T09:22:35.408Z,2.43
2022-10-17T09:25:07.033Z,2.50
2022-10-17T09:27:37.964Z,2.57
2022-10-17T09:30:43.557Z,3.07
2022-10-17T09:33:23.237Z,2.20
2022-10-17T09:36:05.811Z,2.10
2022-10-17T09:38:39.621Z,1.83
2022-10-17T09:41:25.887Z,2.20
2022-10-17T09:44:01.791Z,2.70
2022-10-17T09:46:37.507Z,2.37
2022-10-17T09:49:10.278Z,2.70
2022-10-17T09:51:40.946Z,2.80
2022-10-17T09:54:17.145Z,1.57
2022-10-17T09:56:59.553Z,2.10
2022-10-17T09:59:37.559Z,1.60
2022-10-17T10:02:28.975Z,2.10
2022-10-17T10:05:07.494Z,2.33
2022-10-17T10:07:38.161Z,3.40
2022-10-17T10:10:31.548Z,1.97
2022-10-17T10:13:34.340Z,2.07
2022-10-17T10:16:43.617Z,2.03
2022-10-17T10:19:49.311Z,2.20
2022-10-17T10:22:24.062Z,2.17
2022-10-17T10:25:20.103Z,1.93
2022-10-17T10:27:54.930Z,2.40
2022-10-17T10:30:36.154Z,2.60
2022-10-17T10:33:16.365Z,2.10
2022-10-17T10:35:55.918Z,2.43
2022-10-17T10:38:25.574Z,2.33
2022-10-17T10:40:58.468Z,2.03
2022-10-17T10:43:38.737Z,1.97
2022-10-17T10:46:21.094Z,1.97
2022-10-17T10:54:04.704Z,1.93
2022-10-17T10:57:06.965Z,1.87
2022-10-17T10:59:41.556Z,2.07
2022-10-17T11:02:15.013Z,1.97
2022-10-17T11:04:48.696Z,1.80
2022-10-17T11:07:45.631Z,2.20
2022-10-17T11:10:19.743Z,2.10
2022-10-17T11:13:00.791Z,1.90
2022-10-17T11:15:49.964Z,1.80
2022-10-17T11:18:24.636Z,2.00
2022-10-17T11:21:00.548Z,2.00
2022-10-17T11:23:36.778Z,1.97
2022-10-17T11:26:35.064Z,1.63
2022-10-17T11:29:09.139Z,2.17
2022-10-17T11:31:41.895Z,2.17
2022-10-17T11:34:15.128Z,1.83
2022-10-17T11:36:45.817Z,1.43
2022-10-17T11:39:18.646Z,3.43
2022-10-17T11:41:55.226Z,2.30
2022-10-17T11:44:30.372Z,2.17
2022-10-17T11:47:02.052Z,2.80
2022-10-17T11:49:40.631Z,2.23
2022-10-17T11:52:44.001Z,2.07
2022-10-17T11:55:19.190Z,2.30
2022-10-17T11:58:24.951Z,2.70
2022-10-17T12:01:07.955Z,2.40
2022-10-17T12:04:01.056Z,2.27
2022-10-17T12:06:43.090Z,2.17
2022-10-17T12:09:28.705Z,2.90
2022-10-17T12:12:10.107Z,2.10
2022-10-17T12:14:45.793Z,2.30
2022-10-17T12:17:34.681Z,2.70
2022-10-17T12:20:40.944Z,2.40
2022-10-17T12:23:37.696Z,2.30
2022-10-17T12:26:10.501Z,2.60
2022-10-17T12:28:57.458Z,2.90
2022-10-17T12:31:34.114Z,2.53
2022-10-17T12:34:26.687Z,2.73
2022-10-17T12:37:06.760Z,1.90
2022-10-17T12:40:13.035Z,2.20
2022-10-17T12:43:07.052Z,2.20
2022-10-17T12:46:03.443Z,2.07
2022-10-17T13:03:48.400Z,2.77
2022-10-17T13:06:52.684Z,1.63
2022-10-17T13:10:00.386Z,1.53
2022-10-17T13:12:52.790Z,2.17
2022-10-17T13:15:44.159Z,2.10
2022-10-17T13:18:25.964Z,2.50
2022-10-17T13:21:11.460Z,2.23
2022-10-17T13:23:45.064Z,2.30
2022-10-17T13:26:21.082Z,2.27
2022-10-17T13:29:06.508Z,2.53
2022-10-17T13:31:43.878Z,2.17
2022-10-17T13:34:21.671Z,2.03
2022-10-17T13:37:01.432Z,2.27
2022-10-17T13:39:54.735Z,1.53
2022-10-17T13:42:28.636Z,2.60
2022-10-17T13:48:53.824Z,2.00
2022-10-17T13:51:24.760Z,1.73
2022-10-17T13:53:54.270Z,2.10
2022-10-17T13:56:31.818Z,1.50
2022-10-17T13:59:11.317Z,2.10
2022-10-17T14:01:43.441Z,2.00
2022-10-17T14:04:20.248Z,1.67
2022-10-17T14:06:52.209Z,1.60
2022-10-17T14:09:26.428Z,1.87
2022-10-17T14:12:29.456Z,2.63
2022-10-17T14:16:07.932Z,3.23
2022-10-17T14:18:24.880Z,1.80
2022-10-17T14:23:46.203Z,2.00
2022-10-17T14:26:21.727Z,1.70
2022-10-17T14:29:25.607Z,2.80
2022-10-17T14:32:50.354Z,1.77
2022-10-17T14:35:41.835Z,2.20
2022-10-17T14:39:01.931Z,2.03
2022-10-17T14:41:44.371Z,1.87
2022-10-17T14:44:35.430Z,2.13
2022-10-17T14:47:43.348Z,1.70
2022-10-17T14:50:59.432Z,2.37
2022-10-17T14:53:35.674Z,2.53
2022-10-17T14:56:07.332Z,2.47
2022-10-17T14:58:36.590Z,2.60
2022-10-17T15:01:05.469Z,2.07
2022-10-17T15:03:44.373Z,2.27
2022-10-17T15:06:20.203Z,2.80
2022-10-17T15:08:51.373Z,2.30
2022-10-17T15:11:37.726Z,2.40
2022-10-17T15:14:18.897Z,2.43
2022-10-17T15:16:48.961Z,2.23
2022-10-17T15:19:19.287Z,2.90
2022-10-17T15:21:48.638Z,3.30
2022-10-17T15:24:19.322Z,2.37
2022-10-17T15:26:52.199Z,2.30
2022-10-17T15:29:20.646Z,2.17
2022-10-17T15:31:55.345Z,2.80
2022-10-17T15:34:26.590Z,2.73
2022-10-17T15:36:58.037Z,2.67
2022-10-17T15:39:27.875Z,2.30
2022-10-17T15:42:06.686Z,2.20
2022-10-17T15:44:37.954Z,2.10
2022-10-17T15:47:06.574Z,2.60
2022-10-17T15:49:57.714Z,2.60
2022-10-17T15:52:28.557Z,2.70
2022-10-17T15:54:59.594Z,2.40
2022-10-17T15:57:38.686Z,3.07
2022-10-17T16:00:09.906Z,4.20
2022-10-17T16:02:44.454Z,3.83
2022-10-17T16:05:19.232Z,4.70
2022-10-17T16:07:49.173Z,19.83
2022-10-17T16:10:28.746Z,6.73
2022-10-17T16:13:04.534Z,6.70
2022-10-17T16:15:37.106Z,31.80
2022-10-17T16:18:30.019Z,7.93
2022-10-17T16:21:08.184Z,15.23
2022-10-17T16:24:01.960Z,27.77
2022-10-17T16:26:31.051Z,14.57
2022-10-17T16:29:03.141Z,18.43
2022-10-17T16:31:37.289Z,9.63
2022-10-17T16:34:09.278Z,6.20
2022-10-17T16:36:50.538Z,23.50
2022-10-17T16:39:39.223Z,5.30
2022-10-17T16:42:08.014Z,4.83
2022-10-17T16:44:44.930Z,5.00
2022-10-17T16:47:20.954Z,7.73
2022-10-17T16:49:53.901Z,10.83
2022-10-17T16:52:24.920Z,19.60
2022-10-17T16:54:53.352Z,8.20
2022-10-17T16:57:24.191Z,9.70
2022-10-17T16:59:53.282Z,13.67
2022-10-17T17:02:26.864Z,6.60
2022-10-17T17:04:55.059Z,5.20
2022-10-17T17:07:25.276Z,4.00
2022-10-17T17:09:53.771Z,4.97
2022-10-17T17:12:21.857Z,11.80
2022-10-17T17:14:50.088Z,4.80
2022-10-17T17:17:30.320Z,4.30
2022-10-17T17:20:07.194Z,4.67
2022-10-17T17:22:36.856Z,4.90
2022-10-17T17:25:05.318Z,4.07
2022-10-17T17:27:34.463Z,3.80
2022-10-17T17:30:03.280Z,4.20
2022-10-17T17:32:31.690Z,4.93
2022-10-17T17:35:00.646Z,4.00
2022-10-17T17:37:31.533Z,4.40
2022-10-17T17:40:03.710Z,3.83
2022-10-17T17:42:31.991Z,5.07
2022-10-17T17:44:59.865Z,4.23
2022-10-17T17:47:30.131Z,4.80
2022-10-17T17:49:58.565Z,4.00
2022-10-17T17:52:27.243Z,4.60
2022-10-17T17:54:55.498Z,6.47
2022-10-17T17:57:25.637Z,4.00
2022-10-17T17:59:58.066Z,3.77
2022-10-17T18:02:27.100Z,3.97
2022-10-17T18:04:55.207Z,4.40
2022-10-17T18:07:24.077Z,3.87
2022-10-17T18:09:56.442Z,3.80
2022-10-17T18:12:33.654Z,3.10
2022-10-17T18:15:04.643Z,3.13
2022-10-17T18:17:34.034Z,3.00
2022-10-17T18:20:04.766Z,3.80
2022-10-17T18:22:33.296Z,3.53
2022-10-17T18:25:04.055Z,3.63
2022-10-17T18:27:35.787Z,3.00
2022-10-17T18:30:09.182Z,2.93
2022-10-17T18:32:37.179Z,3.53
2022-10-17T18:35:09.582Z,3.13
2022-10-17T18:40:17.295Z,3.20
2022-10-17T18:42:50.813Z,3.33
2022-10-17T18:45:19.352Z,4.77
2022-10-17T18:47:52.797Z,3.43
2022-10-17T18:50:21.894Z,3.20
2022-10-17T18:52:51.507Z,4.10
2022-10-17T18:55:20.842Z,4.70
2022-10-17T18:57:51.612Z,5.53
2022-10-17T19:00:22.069Z,4.10
2022-10-17T19:02:51.001Z,3.93
2022-10-17T19:05:19.549Z,3.50
2022-10-17T19:07:48.108Z,3.67
2022-10-17T19:10:28.621Z,3.47
2022-10-17T19:13:01.271Z,3.97
2022-10-17T19:15:32.882Z,4.77
2022-10-17T19:18:04.028Z,4.70
2022-10-17T19:20:38.908Z,4.67
2022-10-17T19:23:10.231Z,3.53
2022-10-17T19:25:41.017Z,4.17
2022-10-17T19:31:18.064Z,3.33
2022-10-17T19:33:47.939Z,3.23
2022-10-17T19:36:17.605Z,3.77
2022-10-17T19:38:47.780Z,4.30
2022-10-17T19:41:17.459Z,4.63
2022-10-17T19:43:47.587Z,4.60
2022-10-17T19:46:34.705Z,5.47
2022-10-17T19:49:12.295Z,5.50
2022-10-17T19:51:41.246Z,4.70
2022-10-17T19:54:10.037Z,4.80
2022-10-17T19:56:40.400Z,6.73
2022-10-17T19:59:11.638Z,5.60
2022-10-17T20:01:44.067Z,5.90
2022-10-17T20:04:13.703Z,6.30
2022-10-17T20:06:44.218Z,5.00
2022-10-17T20:09:16.591Z,4.90
2022-10-17T20:11:45.684Z,5.40
2022-10-17T20:14:31.289Z,5.30
2022-10-17T20:17:01.025Z,6.57
2022-10-17T20:19:29.505Z,5.40
2022-10-17T20:21:58.106Z,5.17
2022-10-17T20:24:32.382Z,5.60
2022-10-17T20:27:00.725Z,6.40
2022-10-17T20:29:31.571Z,7.00
2022-10-17T20:32:00.343Z,6.60
2022-10-17T20:34:30.685Z,6.90
2022-10-17T20:37:03.503Z,5.80
2022-10-17T20:39:31.721Z,6.70
2022-10-17T20:42:00.375Z,7.20
2022-10-17T20:44:31.070Z,5.80
2022-10-17T20:47:33.124Z,6.40
2022-10-17T20:53:36.959Z,6.00
2022-10-17T20:56:08.908Z,6.87
2022-10-17T20:58:39.586Z,7.17
2022-10-17T21:01:11.133Z,6.70
2022-10-17T21:03:45.464Z,7.30
2022-10-17T21:06:15.182Z,5.60
2022-10-17T21:08:44.206Z,6.20
2022-10-17T21:11:15.186Z,6.70
2022-10-17T21:13:43.748Z,7.13
2022-10-17T21:16:17.399Z,6.93
2022-10-17T21:18:45.913Z,8.13
2022-10-17T21:21:15.800Z,7.50
2022-10-17T21:23:48.934Z,7.13
2022-10-17T21:26:19.113Z,8.23
2022-10-17T21:28:50.132Z,9.20
2022-10-17T21:31:23.280Z,9.33
2022-10-17T21:33:53.427Z,8.80
2022-10-17T21:36:22.893Z,6.80
2022-10-17T21:38:53.096Z,6.33
2022-10-17T21:41:22.892Z,7.20
2022-10-17T21:43:55.585Z,7.20
2022-10-17T21:46:25.650Z,7.87
2022-10-17T21:49:27.351Z,6.70
2022-10-17T21:51:57.976Z,7.60
2022-10-17T21:54:30.852Z,7.73
2022-10-17T21:56:58.838Z,7.03
2022-10-17T21:59:27.282Z,7.63
2022-10-17T22:01:58.168Z,8.10
2022-10-17T22:04:28.605Z,8.30
2022-10-17T22:06:57.353Z,8.60
2022-10-17T22:09:27.087Z,8.70
2022-10-17T22:12:25.534Z,8.03
2022-10-17T22:14:55.822Z,7.60
2022-10-17T22:17:25.857Z,8.70
2022-10-17T22:19:53.916Z,7.10
2022-10-17T22:22:22.444Z,7.43
2022-10-17T22:24:57.170Z,8.23
2022-10-17T22:27:26.367Z,10.50
2022-10-17T22:29:54.537Z,7.60
2022-10-17T22:32:22.798Z,8.90
2022-10-17T22:34:53.506Z,8.10
2022-10-17T22:37:21.877Z,7.60
2022-10-17T22:39:53.211Z,7.70
2022-10-17T22:44:50.115Z,8.03
2022-10-17T22:47:20.647Z,8.70
2022-10-17T22:49:48.827Z,9.37
2022-10-17T22:52:18.768Z,8.17
2022-10-17T22:54:47.362Z,8.40
2022-10-17T22:57:15.383Z,8.90
2022-10-17T22:59:43.529Z,8.63
2022-10-17T23:02:11.795Z,8.90
2022-10-17T23:04:41.374Z,9.30
2022-10-17T23:07:14.111Z,9.10
2022-10-17T23:09:43.748Z,8.80
2022-10-17T23:12:11.720Z,9.97
2022-10-17T23:14:43.165Z,10.97
2022-10-17T23:17:11.778Z,8.23
2022-10-17T23:19:40.389Z,10.97
2022-10-17T23:22:09.184Z,9.80
2022-10-17T23:24:37.409Z,8.13
2022-10-17T23:27:07.659Z,12.13
2022-10-17T23:29:36.110Z,9.17
2022-10-17T23:32:05.489Z,8.00
2022-10-17T23:34:33.634Z,9.23
2022-10-17T23:37:01.947Z,8.60
2022-10-17T23:39:29.977Z,9.97
2022-10-17T23:41:58.133Z,12.07
2022-10-17T23:44:27.948Z,11.53
2022-10-17T23:46:56.161Z,10.80
2022-10-17T23:49:24.198Z,10.60
2022-10-17T23:51:52.027Z,9.50
2022-10-17T23:54:19.879Z,11.30
2022-10-17T23:56:48.117Z,10.50
2022-10-17T23:59:16.025Z,10.00
